Time;durP1;ratioP1;P1;durP2;ratioP2;P2;SDS_P1;SDS_P2;PMS_P1;PMS_P2;Temp;Humidity;BMP_temperature;BMP_pressure;BME280_temperature;BME280_humidity;BME280_pressure;Samples;Min_cycle;Max_cycle;Signal;HPM_P1;HPM_P2
2021/04/15 00:01:54;;;;;;;4.10;3.80;;;;;;;2.51;100.00;100646.64;232846;1202;103207;-73
2021/04/15 00:06:55;;;;;;;3.50;3.25;;;;;;;2.31;100.00;100649.30;232909;1203;103142;-72
2021/04/15 00:11:57;;;;;;;2.97;2.67;;;;;;;2.28;100.00;100644.06;233137;1202;103152;-73
2021/04/15 00:16:58;;;;;;;3.10;2.90;;;;;;;2.23;100.00;100646.70;233129;1203;103126;-71
2021/04/15 00:22:00;;;;;;;3.40;3.20;;;;;;;2.21;100.00;100640.55;232967;1202;103277;-72
2021/04/15 00:27:01;;;;;;;2.90;2.70;;;;;;;2.23;100.00;100638.81;233574;1202;103220;-72
2021/04/15 00:32:03;;;;;;;3.00;2.80;;;;;;;2.26;100.00;100637.92;233591;1202;103664;-72
2021/04/15 00:37:04;;;;;;;3.60;3.30;;;;;;;2.26;100.00;100633.52;232829;1203;104540;-72
2021/04/15 00:42:07;;;;;;;3.10;2.80;;;;;;;2.22;100.00;100629.16;232782;1203;103216;-72
2021/04/15 00:47:15;;;;;;;3.00;2.75;;;;;;;2.23;100.00;100636.17;232889;1203;103283;-70
2021/04/15 00:52:21;;;;;;;2.97;2.77;;;;;;;2.20;100.00;100630.91;232877;1203;103148;-74
2021/04/15 00:57:44;;;;;;;4.20;2.90;;;;;;;2.15;100.00;100622.16;233535;1203;103204;-73
2021/04/15 01:02:45;;;;;;;2.43;2.30;;;;;;;2.23;100.00;100636.17;232814;1203;103481;-73
2021/04/15 01:07:49;;;;;;;3.25;3.05;;;;;;;2.29;100.00;100630.04;232727;1203;103300;-72
2021/04/15 01:12:52;;;;;;;3.95;3.00;;;;;;;2.23;100.00;100628.28;232899;1202;103357;-72
2021/04/15 01:17:59;;;;;;;3.23;2.93;;;;;;;2.30;100.00;100622.13;232869;1203;103229;-72
2021/04/15 01:23:19;;;;;;;3.05;2.75;;;;;;;2.38;100.00;100617.73;232777;1203;103181;-72
2021/04/15 01:28:20;;;;;;;6.27;3.30;;;;;;;2.28;100.00;100613.36;232811;1203;103232;-72
2021/04/15 01:33:26;;;;;;;4.38;3.20;;;;;;;2.20;100.00;100604.61;232822;1203;103155;-72
2021/04/15 01:38:33;;;;;;;2.80;2.60;;;;;;;2.29;100.00;100601.96;232783;1203;103495;-72
2021/04/15 01:43:41;;;;;;;3.35;3.05;;;;;;;2.33;100.00;100592.30;232948;1202;103159;-71
2021/04/15 01:48:42;;;;;;;3.20;2.97;;;;;;;2.29;100.00;100594.07;232786;1203;103526;-72
2021/04/15 01:53:49;;;;;;;3.27;2.80;;;;;;;2.31;100.00;100591.42;232862;1202;103143;-72
2021/04/15 01:58:56;;;;;;;2.70;2.50;;;;;;;2.33;100.00;100595.80;232937;1203;103165;-72
2021/04/15 02:04:03;;;;;;;3.05;2.85;;;;;;;2.35;100.00;100583.52;232774;1203;103284;-72
2021/04/15 02:09:08;;;;;;;3.43;2.90;;;;;;;2.34;100.00;100581.77;232844;1203;103212;-72
2021/04/15 02:14:15;;;;;;;2.60;2.40;;;;;;;2.36;100.00;100574.76;232945;1203;103213;-73
2021/04/15 02:19:22;;;;;;;3.70;3.27;;;;;;;2.35;100.00;100575.63;232947;1203;103137;-71
2021/04/15 02:24:52;;;;;;;4.07;3.67;;;;;;;2.32;100.00;100578.30;232861;1202;103523;-73
2021/04/15 02:30:13;;;;;;;3.00;2.80;;;;;;;2.33;100.00;100566.86;232802;1203;103257;-72
2021/04/15 02:35:26;;;;;;;3.80;2.77;;;;;;;2.42;100.00;100565.08;232921;1203;103274;-72
2021/04/15 02:40:36;;;;;;;4.80;3.30;;;;;;;2.38;100.00;100573.00;232774;1202;103210;-71
2021/04/15 02:45:43;;;;;;;3.43;3.13;;;;;;;2.41;100.00;100565.95;232923;1203;103207;-73
2021/04/15 02:50:45;;;;;;;2.67;2.50;;;;;;;2.45;100.00;100557.19;232796;1202;103526;-72
2021/04/15 02:55:55;;;;;;;3.50;3.20;;;;;;;2.43;100.00;100559.84;232782;1202;103274;-72
2021/04/15 03:00:58;;;;;;;3.60;3.33;;;;;;;2.35;100.00;100553.72;232831;1203;103214;-71
2021/04/15 03:06:09;;;;;;;2.57;2.23;;;;;;;2.37;100.00;100558.09;232823;1203;103110;-71
2021/04/15 03:11:18;;;;;;;2.57;2.30;;;;;;;2.46;100.00;100556.31;232799;1203;103143;-71
2021/04/15 03:16:24;;;;;;;3.17;2.87;;;;;;;2.33;100.00;100558.11;232901;1203;103235;-73
2021/04/15 03:21:33;;;;;;;2.20;1.97;;;;;;;2.27;100.00;100555.50;232926;1202;103278;-71
2021/04/15 03:26:43;;;;;;;2.17;1.97;;;;;;;2.29;100.00;100557.23;232892;1203;103162;-74
2021/04/15 03:31:57;;;;;;;4.43;3.43;;;;;;;2.29;100.00;100554.61;232958;1202;103243;-73
2021/04/15 03:37:01;;;;;;;1.93;1.83;;;;;;;2.21;100.00;100559.91;233971;1202;103571;-75
2021/04/15 03:42:29;;;;;;;1.88;1.78;;;;;;;2.21;100.00;100559.02;233716;1202;103213;-72
2021/04/15 03:47:36;;;;;;;2.10;2.00;;;;;;;2.17;100.00;100552.89;232758;1177;114532;-72
2021/04/15 03:52:44;;;;;;;3.83;2.05;;;;;;;2.15;100.00;100553.78;232517;1177;114431;-73
2021/04/15 03:57:49;;;;;;;1.85;1.40;;;;;;;2.17;100.00;100560.78;232612;1177;114528;-71
2021/04/15 04:02:59;;;;;;;2.05;1.80;;;;;;;2.19;100.00;100558.13;232388;1177;114613;-71
2021/04/15 04:08:10;;;;;;;2.15;1.80;;;;;;;2.02;100.00;100561.70;232622;1176;114937;-71
2021/04/15 04:13:32;;;;;;;1.65;1.55;;;;;;;1.97;100.00;100552.95;232325;1177;114311;-72
2021/04/15 04:18:58;;;;;;;2.00;1.60;;;;;;;1.99;100.00;100556.44;232309;1177;114841;-71
2021/04/15 04:24:09;;;;;;;2.03;1.80;;;;;;;1.98;100.00;100561.70;232514;1176;114319;-70
2021/04/15 04:29:40;;;;;;;1.80;1.70;;;;;;;1.85;100.00;100560.84;232320;1177;114323;-70
2021/04/15 04:34:44;;;;;;;2.23;1.60;;;;;;;1.88;100.00;100563.48;232246;1177;117447;-72
2021/04/15 04:39:46;;;;;;;4.50;1.70;;;;;;;1.94;100.00;100568.73;232426;1177;114511;-73
2021/04/15 04:44:55;;;;;;;2.40;2.20;;;;;;;1.85;100.00;100571.36;233028;1177;114771;-70
2021/04/15 04:50:06;;;;;;;2.20;2.10;;;;;;;1.91;100.00;100564.35;233711;1177;114168;-72
2021/04/15 04:55:47;;;;;;;1.83;1.73;;;;;;;1.95;100.00;100559.97;233659;1201;103142;-71
2021/04/15 05:00:55;;;;;;;2.33;2.23;;;;;;;2.00;100.00;100568.70;233675;1203;103578;-71
2021/04/15 05:06:01;;;;;;;2.10;1.90;;;;;;;1.96;100.00;100561.72;233594;1202;103264;-71
2021/04/15 05:11:02;;;;;;;2.07;1.90;;;;;;;1.98;100.00;100554.68;233613;1203;103788;-71
2021/04/15 05:16:04;;;;;;;2.70;2.50;;;;;;;2.15;100.00;100561.66;233641;1203;103139;-70
2021/04/15 05:21:18;;;;;;;1.93;1.83;;;;;;;2.17;100.00;100552.89;232864;1202;103536;-71
2021/04/15 05:26:27;;;;;;;2.07;1.87;;;;;;;2.14;100.00;100562.54;232899;1203;103201;-72
2021/04/15 05:31:32;;;;;;;4.53;2.50;;;;;;;2.14;100.00;100562.54;232763;1203;103213;-70
2021/04/15 05:36:39;;;;;;;2.30;2.10;;;;;;;2.23;100.00;100559.89;232868;1203;103331;-72
2021/04/15 05:42:05;;;;;;;3.00;2.70;;;;;;;2.12;100.00;100559.92;232931;1202;103526;-71
2021/04/15 05:47:28;;;;;;;2.40;1.87;;;;;;;2.09;100.00;100561.69;233038;1203;103140;-72
2021/04/15 05:52:47;;;;;;;2.60;1.95;;;;;;;2.17;100.00;100557.29;233049;1203;103140;-70
2021/04/15 05:57:53;;;;;;;2.73;1.50;;;;;;;2.29;100.00;100553.75;232874;1203;103557;-70
2021/04/15 06:03:08;;;;;;;2.30;2.10;;;;;;;2.33;100.00;100558.97;232918;1202;103226;-71
2021/04/15 06:08:10;;;;;;;2.80;2.50;;;;;;;2.36;100.00;100558.97;232919;1203;103188;-71
2021/04/15 06:13:42;;;;;;;1.93;1.80;;;;;;;2.29;100.00;100549.34;232907;1203;103546;-72
2021/04/15 06:18:50;;;;;;;1.60;1.50;;;;;;;2.44;100.00;100547.55;232911;1203;103124;-70
2021/04/15 06:24:04;;;;;;;1.80;1.70;;;;;;;2.48;100.00;100546.63;232971;1203;103296;-71
2021/04/15 06:29:19;;;;;;;2.80;1.90;;;;;;;2.47;100.00;100539.62;232994;1203;103213;-72
2021/04/15 06:34:23;;;;;;;1.95;1.80;;;;;;;2.53;100.00;100529.95;233222;1203;103206;-71
2021/04/15 06:39:42;;;;;;;4.05;2.50;;;;;;;2.67;100.00;100542.16;232954;1202;103155;-72
2021/04/15 06:44:50;;;;;;;3.25;2.90;;;;;;;2.64;100.00;100536.94;233087;1203;103209;-70
2021/04/15 06:50:10;;;;;;;1.57;1.47;;;;;;;2.74;100.00;100533.35;232931;1203;103329;-71
2021/04/15 06:55:29;;;;;;;1.60;1.50;;;;;;;2.80;100.00;100535.09;232882;1203;103209;-72
2021/04/15 07:01:08;;;;;;;2.00;1.80;;;;;;;2.86;100.00;100533.27;233234;1203;103163;-72
2021/04/15 07:06:16;;;;;;;2.00;1.77;;;;;;;2.89;100.00;100540.27;234210;1203;103264;-73
2021/04/15 07:11:52;;;;;;;2.00;1.80;;;;;;;3.02;100.00;100539.34;233299;1205;103209;-74
2021/04/15 07:17:12;;;;;;;4.60;2.80;;;;;;;3.14;100.00;100532.23;233580;1202;103293;-71
2021/04/15 07:22:53;;;;;;;4.30;4.00;;;;;;;3.13;100.00;100538.38;232976;1202;103557;-73
2021/04/15 07:28:21;;;;;;;3.70;3.40;;;;;;;3.21;100.00;100543.61;233491;1202;105287;-71
2021/04/15 07:33:44;;;;;;;4.35;3.95;;;;;;;3.32;100.00;100542.62;232917;1203;103209;-70
2021/04/15 07:39:01;;;;;;;5.18;4.20;;;;;;;3.41;100.00;100543.44;232886;1203;116882;-71
2021/04/15 07:44:25;;;;;;;3.15;2.95;;;;;;;3.42;100.00;100538.14;234362;1202;103197;-71
2021/04/15 07:49:37;;;;;;;4.05;2.90;;;;;;;3.50;100.00;100540.73;233911;1202;103155;-72
2021/04/15 07:55:16;;;;;;;2.93;2.73;;;;;;;3.52;100.00;100549.52;233359;1203;103593;-72
2021/04/15 08:00:35;;;;;;;4.43;4.03;;;;;;;3.57;100.00;100552.08;233676;1203;103165;-74
2021/04/15 08:06:12;;;;;;;3.75;3.38;;;;;;;3.55;100.00;100546.83;233556;1202;103191;-72
2021/04/15 08:11:26;;;;;;;2.60;2.40;;;;;;;3.66;100.00;100550.23;233524;1203;103329;-72
2021/04/15 08:17:07;;;;;;;2.55;2.13;;;;;;;3.71;100.00;100549.34;233537;1203;103107;-71
2021/04/15 08:22:46;;;;;;;2.67;2.47;;;;;;;3.75;100.00;100549.30;233591;1203;103983;-73
2021/04/15 08:28:02;;;;;;;3.70;2.80;;;;;;;3.78;100.00;100551.03;232866;1203;103185;-73
2021/04/15 08:33:07;;;;;;;3.13;2.83;;;;;;;3.86;100.00;100553.58;232918;1202;103206;-72
2021/04/15 08:38:15;;;;;;;2.87;2.50;;;;;;;3.86;100.00;100557.11;233629;1203;103146;-72
2021/04/15 08:43:55;;;;;;;3.10;2.80;;;;;;;3.90;100.00;100557.95;233616;1200;103250;-73
2021/04/15 08:49:04;;;;;;;3.77;2.57;;;;;;;3.98;100.00;100558.76;233608;1201;103232;-73
2021/04/15 08:54:39;;;;;;;3.93;3.53;;;;;;;3.98;100.00;100562.25;233601;1202;103311;-72
2021/04/15 09:00:05;;;;;;;3.60;3.23;;;;;;;3.94;100.00;100562.30;232842;1202;103139;-73
2021/04/15 09:05:30;;;;;;;2.83;2.60;;;;;;;4.00;100.00;100551.68;233062;1202;103300;-72
2021/04/15 09:10:34;;;;;;;;;;;;;;;4.11;100.00;100551.56;234046;1207;103220;-72
2021/04/15 09:16:00;;;;;;;4.43;3.97;;;;;;;4.13;100.00;100544.52;233553;1203;103212;-71
2021/04/15 09:21:23;;;;;;;3.75;3.30;;;;;;;4.16;100.00;100552.38;233580;1203;103200;-73
2021/04/15 09:26:33;;;;;;;3.37;3.07;;;;;;;4.14;100.00;100554.19;233627;1202;103156;-72
2021/04/15 09:31:53;;;;;;;5.20;3.90;;;;;;;4.14;100.00;100554.19;233778;1202;106901;-72
2021/04/15 09:37:11;;;;;;;5.60;4.77;;;;;;;4.17;100.00;100548.86;233573;1202;103235;-72
2021/04/15 09:42:24;;;;;;;4.20;3.75;;;;;;;4.29;100.00;100547.85;233635;1203;103572;-73
2021/04/15 09:47:32;;;;;;;3.30;2.85;;;;;;;4.37;100.00;100555.70;233661;1203;103631;-72
2021/04/15 09:52:47;;;;;;;4.17;3.77;;;;;;;4.29;100.00;100547.85;233622;1203;103210;-73
2021/04/15 09:58:21;;;;;;;3.60;3.30;;;;;;;4.34;100.00;100555.72;232943;1203;103545;-73
2021/04/15 10:03:50;;;;;;;3.20;3.00;;;;;;;4.43;100.00;100550.34;232907;1203;103207;-74
2021/04/15 10:08:54;;;;;;;4.30;3.90;;;;;;;4.44;100.00;100545.03;233571;1203;103168;-74
2021/04/15 10:14:12;;;;;;;4.08;3.48;;;;;;;4.39;100.00;100544.23;233572;1202;103129;-71
2021/04/15 10:19:39;;;;;;;4.37;3.87;;;;;;;4.42;100.00;100553.87;233618;1203;103175;-71
2021/04/15 10:24:49;;;;;;;5.70;5.20;;;;;;;4.41;100.00;100560.03;233757;1203;103315;-72
2021/04/15 10:30:15;;;;;;;5.10;4.30;;;;;;;4.43;100.00;100551.20;234029;1203;103136;-71
2021/04/15 10:35:33;;;;;;;4.80;4.40;;;;;;;4.47;100.00;100552.03;233903;1202;103145;-71
2021/04/15 10:40:41;;;;;;;3.95;3.65;;;;;;;4.51;100.00;100550.23;233678;1203;103698;-72
2021/04/15 10:45:43;;;;;;;3.87;3.47;;;;;;;4.58;100.00;100549.27;233676;1202;103194;-72
2021/04/15 10:50:54;;;;;;;4.20;3.90;;;;;;;4.57;100.00;100548.41;233234;1203;103571;-72
2021/04/15 10:56:12;;;;;;;5.83;4.03;;;;;;;4.55;100.00;100554.56;232872;1203;103216;-73
2021/04/15 11:01:29;;;;;;;3.13;2.83;;;;;;;4.66;100.00;100551.79;233646;1203;103185;-74
2021/04/15 11:06:42;;;;;;;3.75;3.20;;;;;;;4.83;100.00;100563.02;232925;1203;103526;-72
2021/04/15 11:12:13;;;;;;;4.08;3.68;;;;;;;4.78;100.00;100562.22;233553;1203;103142;-72
2021/04/15 11:17:42;;;;;;;3.70;3.40;;;;;;;4.73;100.00;100564.91;233534;1203;103226;-74
2021/04/15 11:23:11;;;;;;;3.40;3.10;;;;;;;4.73;100.00;100564.02;233652;1202;103210;-72
2021/04/15 11:28:16;;;;;;;3.68;3.38;;;;;;;4.75;100.00;100568.42;233599;1203;103209;-73
2021/04/15 11:33:36;;;;;;;3.45;3.15;;;;;;;4.70;100.00;100569.36;232909;1202;103165;-72
2021/04/15 11:38:39;;;;;;;4.20;3.80;;;;;;;4.76;100.00;100561.36;233647;1203;103227;-73
2021/04/15 11:43:41;;;;;;;4.50;4.10;;;;;;;4.82;100.00;100565.69;233586;1203;103252;-73
2021/04/15 11:48:43;;;;;;;4.40;4.00;;;;;;;4.86;100.00;100567.38;233597;1203;103171;-71
2021/04/15 11:53:49;;;;;;;5.27;4.77;;;;;;;4.98;100.00;100564.56;232849;1203;104198;-72
2021/04/15 11:58:54;;;;;;;4.60;4.20;;;;;;;5.02;100.00;100565.39;232951;1203;103188;-72
2021/04/15 12:03:57;;;;;;;;;;;;;;;5.21;100.00;100555.43;233056;1209;103137;-72
2021/04/15 12:09:01;;;;;;;4.90;4.50;;;;;;;5.19;100.00;100555.46;236756;1202;103110;-73
2021/04/15 12:14:17;;;;;;;4.90;4.15;;;;;;;5.13;100.00;100560.84;234777;1203;103232;-72
2021/04/15 12:19:37;;;;;;;4.43;4.00;;;;;;;5.18;100.00;100556.35;233080;1203;103166;-71
2021/04/15 12:24:54;;;;;;;3.40;3.10;;;;;;;5.19;100.00;100563.39;233501;1203;103207;-72
2021/04/15 12:30:04;;;;;;;3.43;3.13;;;;;;;5.21;100.00;100561.61;233641;1203;103174;-73
2021/04/15 12:35:22;;;;;;;3.83;3.53;;;;;;;5.08;100.00;100567.94;232953;1203;105741;-74
2021/04/15 12:40:33;;;;;;;3.60;3.30;;;;;;;5.05;100.00;100570.65;233659;1202;103210;-72
2021/04/15 12:45:40;;;;;;;3.90;3.53;;;;;;;5.06;100.00;100567.97;233831;1203;109147;-73
2021/04/15 12:50:42;;;;;;;4.13;3.73;;;;;;;5.00;100.00;100572.49;233756;1203;103162;-71
2021/04/15 12:55:44;;;;;;;5.27;4.60;;;;;;;5.05;100.00;100574.15;233905;1202;103670;-74
2021/04/15 13:00:47;;;;;;;3.77;3.47;;;;;;;5.14;100.00;100570.52;233723;1202;103296;-71
2021/04/15 13:05:49;;;;;;;5.60;4.40;;;;;;;5.15;100.00;100572.24;233870;1202;103213;-73
2021/04/15 13:10:52;;;;;;;4.95;4.50;;;;;;;5.09;100.00;100573.23;233641;1203;103568;-72
2021/04/15 13:15:54;;;;;;;4.50;4.20;;;;;;;5.06;100.00;100570.62;233632;1202;103213;-73
2021/04/15 13:21:12;;;;;;;5.10;4.60;;;;;;;5.12;100.00;100561.73;233662;1203;103204;-74
2021/04/15 13:26:13;;;;;;;5.10;4.60;;;;;;;5.10;100.00;100563.52;233577;1203;106987;-72
2021/04/15 13:31:36;;;;;;;6.05;5.10;;;;;;;5.10;100.00;100566.16;233642;1203;103306;-76
2021/04/15 13:36:39;;;;;;;5.20;4.80;;;;;;;5.10;100.00;100566.16;233629;1202;110768;-73
2021/04/15 13:41:52;;;;;;;5.07;4.67;;;;;;;5.07;100.00;100575.02;233874;1202;103171;-72
2021/04/15 13:46:54;;;;;;;6.43;4.87;;;;;;;5.15;100.00;100574.89;233725;1203;116446;-74
2021/04/15 13:52:27;;;;;;;5.83;5.28;;;;;;;5.15;100.00;100563.45;233702;1203;103270;-73
2021/04/15 13:57:46;;;;;;;6.60;5.67;;;;;;;5.18;100.00;100566.06;233789;1203;103178;-72
2021/04/15 14:02:50;;;;;;;5.70;5.03;;;;;;;5.19;100.00;100568.67;233627;1202;103163;-73
2021/04/15 14:07:52;;;;;;;5.98;4.75;;;;;;;5.21;100.00;100574.82;233063;1202;103228;-73
2021/04/15 14:13:13;;;;;;;5.00;4.50;;;;;;;5.13;100.00;100579.34;233699;1203;103137;-72
2021/04/15 14:18:30;;;;;;;5.00;4.50;;;;;;;5.14;100.00;100570.52;232863;1202;106790;-72
2021/04/15 14:23:45;;;;;;;5.03;4.63;;;;;;;5.17;100.00;100570.45;233572;1201;103135;-70
2021/04/15 14:28:49;;;;;;;6.15;5.55;;;;;;;5.23;100.00;100569.50;233176;1203;103571;-71
2021/04/15 14:33:52;;;;;;;7.65;6.95;;;;;;;5.18;100.00;100577.50;232929;1202;103162;-73
2021/04/15 14:38:57;;;;;;;6.07;5.37;;;;;;;5.13;100.00;100589.02;233591;1202;103581;-73
2021/04/15 14:44:21;;;;;;;6.47;5.87;;;;;;;5.16;100.00;100588.99;233509;1202;104488;-72
2021/04/15 14:49:27;;;;;;;7.00;6.30;;;;;;;5.18;100.00;100577.50;233639;1202;103287;-71
2021/04/15 14:54:33;;;;;;;9.40;7.10;;;;;;;5.11;100.00;100581.13;233454;1203;103494;-73
2021/04/15 14:59:38;;;;;;;7.63;5.87;;;;;;;5.06;100.00;100581.19;232898;1203;103578;-72
2021/04/15 15:04:41;;;;;;;6.33;5.33;;;;;;;5.13;100.00;100568.77;233634;1203;103251;-71
2021/04/15 15:09:43;;;;;;;6.40;5.80;;;;;;;5.16;100.00;100557.28;233562;1203;103306;-73
2021/04/15 15:14:48;;;;;;;7.28;6.58;;;;;;;5.14;100.00;100553.78;232981;1203;103552;-72
2021/04/15 15:19:50;;;;;;;8.47;7.70;;;;;;;5.09;100.00;100553.84;233003;1202;103207;-72
2021/04/15 15:24:52;;;;;;;7.30;6.60;;;;;;;5.12;100.00;100561.73;232956;1201;103600;-72
2021/04/15 15:30:01;;;;;;;8.60;7.70;;;;;;;5.14;100.00;100554.67;232936;1203;103139;-73
2021/04/15 15:35:11;;;;;;;10.45;8.63;;;;;;;5.10;100.00;100559.13;233140;1203;103315;-74
2021/04/15 15:40:35;;;;;;;9.67;7.73;;;;;;;5.11;100.00;100554.70;233868;1202;103159;-73
2021/04/15 15:45:42;;;;;;;8.23;7.30;;;;;;;5.17;100.00;100548.45;233543;1203;104307;-73
2021/04/15 15:50:52;;;;;;;9.35;8.45;;;;;;;5.13;100.00;100558.20;233283;1177;114877;-72
2021/04/15 15:55:54;;;;;;;9.73;8.83;;;;;;;5.06;100.00;100557.41;232735;1177;114541;-72
2021/04/15 16:01:11;;;;;;;10.33;8.63;;;;;;;5.07;100.00;100566.22;232720;1177;114731;-72
2021/04/15 16:06:16;;;;;;;8.80;8.00;;;;;;;5.17;100.00;100557.24;232526;1177;114975;-71
2021/04/15 16:11:35;;;;;;;10.60;8.67;;;;;;;5.18;100.00;100558.14;233168;1177;114624;-73
2021/04/15 16:16:39;;;;;;;10.68;9.58;;;;;;;5.08;100.00;100554.73;233408;1177;115738;-70
2021/04/15 16:21:40;;;;;;;11.00;8.75;;;;;;;5.08;100.00;100550.34;233448;1177;115043;-73
2021/04/15 16:26:43;;;;;;;10.00;9.00;;;;;;;5.11;100.00;100546.77;233086;1177;115132;-72
2021/04/15 16:31:50;;;;;;;11.47;10.33;;;;;;;5.14;100.00;100554.67;233657;1177;114961;-73
2021/04/15 16:36:54;;;;;;;12.37;10.13;;;;;;;5.11;100.00;100552.05;233600;1176;115530;-72
2021/04/15 16:41:59;;;;;;;12.90;11.00;;;;;;;5.07;100.00;100553.02;232995;1177;115406;-72
2021/04/15 16:47:01;;;;;;;12.10;10.65;;;;;;;5.15;100.00;100556.38;232796;1177;115495;-71
2021/04/15 16:52:04;;;;;;;15.60;12.80;;;;;;;5.11;100.00;100555.56;232882;1177;114954;-72
2021/04/15 16:57:08;;;;;;;20.35;16.30;;;;;;;5.10;100.00;100552.95;233450;1176;115177;-71
2021/04/15 17:02:13;;;;;;;21.50;16.30;;;;;;;5.08;100.00;100547.69;232941;1177;114996;-72
2021/04/15 17:07:16;;;;;;;13.85;12.33;;;;;;;5.11;100.00;100557.34;233090;1177;115163;-73
2021/04/15 17:12:18;;;;;;;13.53;12.08;;;;;;;5.22;100.00;100557.18;233544;1176;115361;-72
2021/04/15 17:17:19;;;;;;;14.53;13.10;;;;;;;5.10;100.00;100552.95;233271;1177;114913;-72
2021/04/15 17:22:21;;;;;;;13.18;11.88;;;;;;;5.08;100.00;100560.02;233060;1176;115241;-72
2021/04/15 17:27:24;;;;;;;13.30;10.50;;;;;;;5.16;100.00;100558.14;233055;1177;114843;-72
2021/04/15 17:32:25;;;;;;;11.80;10.65;;;;;;;5.13;100.00;100566.13;233220;1176;114921;-72
2021/04/15 17:37:27;;;;;;;13.55;11.95;;;;;;;5.17;100.00;100567.81;233159;1177;114884;-72
2021/04/15 17:42:28;;;;;;;16.28;13.80;;;;;;;5.14;100.00;100564.34;233072;1177;115087;-73
2021/04/15 17:47:30;;;;;;;14.70;12.30;;;;;;;5.15;100.00;100561.67;233106;1177;114969;-72
2021/04/15 17:52:31;;;;;;;14.03;12.43;;;;;;;5.09;100.00;100567.94;233039;1177;115362;-73
2021/04/15 17:57:33;;;;;;;14.83;12.63;;;;;;;5.16;100.00;100568.70;232801;1176;115254;-72
2021/04/15 18:02:35;;;;;;;16.15;13.85;;;;;;;5.20;100.00;100575.72;233151;1176;115329;-72
2021/04/15 18:07:36;;;;;;;20.73;16.65;;;;;;;5.10;100.00;100569.69;233244;1177;114971;-74
2021/04/15 18:12:39;;;;;;;17.90;15.10;;;;;;;5.14;100.00;100580.20;233493;1177;115659;-75
2021/04/15 18:17:41;;;;;;;16.13;13.90;;;;;;;5.21;100.00;100577.47;233501;1176;114884;-75
2021/04/15 18:22:44;;;;;;;16.37;14.13;;;;;;;5.24;100.00;100585.33;232871;1177;115290;-75
2021/04/15 18:27:46;;;;;;;19.65;16.68;;;;;;;5.21;100.00;100588.03;233182;1177;115249;-73
2021/04/15 18:32:48;;;;;;;16.63;14.93;;;;;;;5.18;100.00;100590.71;233156;1176;114735;-74
2021/04/15 18:37:50;;;;;;;15.20;13.63;;;;;;;5.24;100.00;100577.41;232803;1176;115210;-72
2021/04/15 18:42:52;;;;;;;16.80;15.05;;;;;;;5.31;100.00;100582.59;233211;1177;114839;-73
2021/04/15 18:47:53;;;;;;;17.60;15.75;;;;;;;5.31;100.00;100577.30;233633;1176;115189;-75
2021/04/15 18:52:55;;;;;;;19.00;16.10;;;;;;;5.27;100.00;100579.12;233418;1177;115432;-71
2021/04/15 18:57:57;;;;;;;19.00;16.80;;;;;;;5.25;100.00;100579.16;233218;1176;114870;-74
2021/04/15 19:02:58;;;;;;;16.30;14.23;;;;;;;5.24;100.00;100577.41;233149;1177;114976;-73
2021/04/15 19:08:01;;;;;;;15.38;13.88;;;;;;;5.39;100.00;100575.42;232905;1176;115132;-75
2021/04/15 19:13:08;;;;;;;20.50;18.35;;;;;;;5.36;100.00;100572.81;233079;1177;116269;-70
2021/04/15 19:18:13;;;;;;;16.98;15.25;;;;;;;5.34;100.00;100571.98;233389;1176;115335;-74
2021/04/15 19:23:16;;;;;;;14.90;13.30;;;;;;;5.31;100.00;100566.73;233050;1176;115138;-74
2021/04/15 19:28:21;;;;;;;15.95;14.30;;;;;;;5.35;100.00;100557.88;233159;1177;115270;-72
2021/04/15 19:33:23;;;;;;;18.23;16.35;;;;;;;5.31;100.00;100561.45;233201;1177;115504;-75
2021/04/15 19:38:26;;;;;;;19.10;17.15;;;;;;;5.30;100.00;100554.41;233141;1176;114900;-73
2021/04/15 19:43:28;;;;;;;18.90;16.70;;;;;;;5.31;100.00;100556.16;233229;1176;115163;-73
2021/04/15 19:48:31;;;;;;;18.93;16.90;;;;;;;5.31;100.00;100551.77;233192;1176;115748;-73
2021/04/15 19:53:33;;;;;;;19.70;17.30;;;;;;;5.24;100.00;100566.83;233223;1176;115078;-74
2021/04/15 19:58:44;;;;;;;18.73;16.48;;;;;;;5.24;100.00;100556.25;233159;1176;115946;-73
2021/04/15 20:03:49;;;;;;;17.60;15.80;;;;;;;5.30;100.00;100562.34;233292;1176;115231;-74
2021/04/15 20:08:51;;;;;;;19.87;15.43;;;;;;;5.36;100.00;100555.20;233482;1176;115746;-73
2021/04/15 20:13:54;;;;;;;20.75;16.88;;;;;;;5.28;100.00;100551.80;232951;1177;114850;-72
2021/04/15 20:18:55;;;;;;;21.07;16.23;;;;;;;5.22;100.00;100552.75;232899;1176;115001;-72
2021/04/15 20:23:58;;;;;;;17.90;14.90;;;;;;;5.28;100.00;100553.58;233114;1176;115245;-73
2021/04/15 20:29:01;;;;;;;20.23;14.23;;;;;;;5.28;100.00;100553.58;233520;1176;116083;-71
2021/04/15 20:34:02;;;;;;;17.77;14.93;;;;;;;5.19;100.00;100550.17;233426;1177;114846;-74
2021/04/15 20:39:04;;;;;;;17.85;13.20;;;;;;;5.17;100.00;100549.31;234244;1203;103292;-72
2021/04/15 20:44:05;;;;;;;17.13;12.83;;;;;;;5.18;100.00;100551.06;233198;1202;103110;-73
2021/04/15 20:49:07;;;;;;;16.90;13.73;;;;;;;5.15;100.00;100543.17;233281;1203;103146;-75
2021/04/15 20:54:09;;;;;;;14.20;12.03;;;;;;;5.12;100.00;100540.59;233885;1202;103188;-76
2021/04/15 20:59:10;;;;;;;14.67;13.10;;;;;;;5.16;100.00;100536.13;234584;1202;103175;-75
2021/04/15 21:04:12;;;;;;;16.10;13.00;;;;;;;5.13;100.00;100534.42;235935;1202;103491;-77
2021/04/15 21:09:14;;;;;;;13.80;12.35;;;;;;;5.10;100.00;100526.52;236708;1202;103227;-78
2021/04/15 21:14:15;;;;;;;15.10;12.20;;;;;;;5.09;100.00;100530.05;233813;1203;103644;-75
2021/04/15 21:19:21;;;;;;;14.87;12.30;;;;;;;5.14;100.00;100525.59;233661;1202;103882;-76
2021/04/15 21:24:24;;;;;;;16.73;13.03;;;;;;;5.15;100.00;100524.67;232826;1202;103207;-75
2021/04/15 21:29:25;;;;;;;16.98;14.43;;;;;;;5.11;100.00;100507.13;232812;1203;103230;-73
2021/04/15 21:34:27;;;;;;;16.80;13.50;;;;;;;5.08;100.00;100507.17;232789;1203;103552;-73
2021/04/15 21:39:28;;;;;;;16.90;11.80;;;;;;;5.15;100.00;100515.88;232834;1202;103597;-73
2021/04/15 21:44:30;;;;;;;14.40;12.95;;;;;;;5.11;100.00;100518.56;232860;1203;103194;-73
2021/04/15 21:49:31;;;;;;;14.90;13.13;;;;;;;5.06;100.00;100515.13;232821;1202;103191;-72
2021/04/15 21:54:33;;;;;;;16.17;12.60;;;;;;;5.06;100.00;100511.63;232785;1202;103224;-73
2021/04/15 21:59:34;;;;;;;13.50;11.80;;;;;;;5.11;100.00;100507.13;232810;1203;103942;-73
2021/04/15 22:04:36;;;;;;;19.45;14.48;;;;;;;5.09;100.00;100499.23;232827;1203;103591;-73
2021/04/15 22:09:38;;;;;;;15.00;12.10;;;;;;;5.09;100.00;100498.34;232876;1202;103185;-72
2021/04/15 22:14:40;;;;;;;13.90;11.63;;;;;;;5.09;100.00;100501.88;233100;1203;103174;-73
2021/04/15 22:19:41;;;;;;;14.95;11.95;;;;;;;5.14;100.00;100501.81;232794;1203;103216;-72
2021/04/15 22:24:46;;;;;;;17.00;13.35;;;;;;;5.14;100.00;100501.81;232806;1203;103267;-73
2021/04/15 22:29:47;;;;;;;17.35;12.50;;;;;;;5.09;100.00;100498.34;233132;1203;103552;-71
2021/04/15 22:34:50;;;;;;;14.60;12.00;;;;;;;5.14;100.00;100482.42;232841;1203;103520;-73
2021/04/15 22:39:52;;;;;;;15.75;12.35;;;;;;;5.13;100.00;100485.95;232818;1203;103213;-73
2021/04/15 22:44:53;;;;;;;14.45;11.80;;;;;;;5.06;100.00;100483.42;232912;1201;103718;-72
2021/04/15 22:49:55;;;;;;;13.60;11.00;;;;;;;5.11;100.00;100491.28;232823;1201;103152;-73
2021/04/15 22:54:56;;;;;;;15.47;10.93;;;;;;;5.14;100.00;100491.24;232783;1203;103136;-73
2021/04/15 22:59:58;;;;;;;13.78;11.70;;;;;;;5.07;100.00;100484.31;232809;1203;103115;-72
2021/04/15 23:04:59;;;;;;;13.68;11.18;;;;;;;5.08;100.00;100486.92;232902;1201;103213;-75
2021/04/15 23:10:01;;;;;;;14.30;11.10;;;;;;;5.10;100.00;100484.24;232881;1202;103219;-75
2021/04/15 23:15:03;;;;;;;14.90;11.77;;;;;;;5.13;100.00;100472.75;232879;1203;103419;-74